sensor_id;sensor_type;location;lat;lon;timestamp;pressure;altitude;pressure_sealevel;temperature;humidity
17362;BME280;8798;51.938;4.348;2023-08-06T00:01:31;100393.66;;;17.07;91.45
17362;BME280;8798;51.938;4.348;2023-08-06T00:03:59;100396.16;;;17.08;91.54
17362;BME280;8798;51.938;4.348;2023-08-06T00:06:27;100398.84;;;17.08;91.48
17362;BME280;8798;51.938;4.348;2023-08-06T00:08:55;100389.06;;;17.07;91.51
17362;BME280;8798;51.938;4.348;2023-08-06T00:11:24;100388.41;;;17.05;91.76
17362;BME280;8798;51.938;4.348;2023-08-06T00:13:52;100385.72;;;17.05;91.85
17362;BME280;8798;51.938;4.348;2023-08-06T00:16:20;100390.13;;;17.06;91.72
17362;BME280;8798;51.938;4.348;2023-08-06T00:18:50;100390.31;;;17.05;91.66
17362;BME280;8798;51.938;4.348;2023-08-06T00:21:18;100388.41;;;17.05;91.81
17362;BME280;8798;51.938;4.348;2023-08-06T00:23:46;100382.16;;;17.05;91.95
17362;BME280;8798;51.938;4.348;2023-08-06T00:26:14;100382.16;;;17.05;91.93
17362;BME280;8798;51.938;4.348;2023-08-06T00:28:41;100388.41;;;17.05;92.12
17362;BME280;8798;51.938;4.348;2023-08-06T00:31:09;100383.22;;;17.04;92.17
17362;BME280;8798;51.938;4.348;2023-08-06T00:33:38;100378.63;;;17.04;92.03
17362;BME280;8798;51.938;4.348;2023-08-06T00:36:07;100389.25;;;17.06;92.20
17362;BME280;8798;51.938;4.348;2023-08-06T00:38:35;100392.81;;;17.06;92.11
17362;BME280;8798;51.938;4.348;2023-08-06T00:41:03;100387.41;;;17.06;91.91
17362;BME280;8798;51.938;4.348;2023-08-06T00:43:31;100393.84;;;17.05;92.11
17362;BME280;8798;51.938;4.348;2023-08-06T00:45:59;100383.00;;;17.05;92.24
17362;BME280;8798;51.938;4.348;2023-08-06T00:48:28;100378.81;;;17.03;92.51
17362;BME280;8798;51.938;4.348;2023-08-06T00:50:56;100378.81;;;17.03;92.07
17362;BME280;8798;51.938;4.348;2023-08-06T00:53:25;100376.28;;;17.01;92.43
17362;BME280;8798;51.938;4.348;2023-08-06T00:55:53;100374.44;;;17.02;92.76
17362;BME280;8798;51.938;4.348;2023-08-06T00:58:22;100377.97;;;17.02;92.31
17362;BME280;8798;51.938;4.348;2023-08-06T01:00:50;100386.97;;;17.03;92.34
17362;BME280;8798;51.938;4.348;2023-08-06T01:03:18;100392.19;;;17.04;92.04
17362;BME280;8798;51.938;4.348;2023-08-06T01:05:47;100398.44;;;17.05;92.31
17362;BME280;8798;51.938;4.348;2023-08-06T01:08:28;100398.25;;;17.06;92.47
17362;BME280;8798;51.938;4.348;2023-08-06T01:11:08;100400.97;;;17.06;92.40
17362;BME280;8798;51.938;4.348;2023-08-06T01:13:43;100399.28;;;17.05;92.33
17362;BME280;8798;51.938;4.348;2023-08-06T01:16:15;100392.19;;;17.04;92.17
17362;BME280;8798;51.938;4.348;2023-08-06T01:18:43;100403.88;;;17.05;92.77
17362;BME280;8798;51.938;4.348;2023-08-06T01:21:14;100393.44;;;17.02;92.66
17362;BME280;8798;51.938;4.348;2023-08-06T01:23:42;100387.78;;;17.03;92.52
17362;BME280;8798;51.938;4.348;2023-08-06T01:26:15;100383.41;;;17.02;92.63
17362;BME280;8798;51.938;4.348;2023-08-06T01:28:53;100382.59;;;17.02;92.32
17362;BME280;8798;51.938;4.348;2023-08-06T01:31:27;100374.63;;;17.00;92.64
17362;BME280;8798;51.938;4.348;2023-08-06T01:33:58;100380.06;;;17.00;92.88
17362;BME280;8798;51.938;4.348;2023-08-06T01:36:28;100383.41;;;17.02;92.77
17362;BME280;8798;51.938;4.348;2023-08-06T01:38:57;100401.34;;;17.03;92.62
17362;BME280;8798;51.938;4.348;2023-08-06T01:41:25;100398.63;;;17.03;92.43
17362;BME280;8798;51.938;4.348;2023-08-06T01:43:53;100385.28;;;17.02;92.82
17362;BME280;8798;51.938;4.348;2023-08-06T01:46:22;100381.72;;;17.01;92.47
17362;BME280;8798;51.938;4.348;2023-08-06T01:48:50;100393.22;;;17.03;92.44
17362;BME280;8798;51.938;4.348;2023-08-06T01:51:18;100396.97;;;17.02;92.73
17362;BME280;8798;51.938;4.348;2023-08-06T01:53:47;100381.94;;;17.00;92.90
17362;BME280;8798;51.938;4.348;2023-08-06T01:56:15;100385.50;;;17.00;92.85
17362;BME280;8798;51.938;4.348;2023-08-06T01:58:43;100381.31;;;16.97;92.96
17362;BME280;8798;51.938;4.348;2023-08-06T02:01:11;100360.22;;;16.93;93.09
17362;BME280;8798;51.938;4.348;2023-08-06T02:03:39;100338.94;;;16.90;93.21
17362;BME280;8798;51.938;4.348;2023-08-06T02:06:07;100337.47;;;16.87;92.85
17362;BME280;8798;51.938;4.348;2023-08-06T02:08:35;100327.84;;;16.85;93.17
17362;BME280;8798;51.938;4.348;2023-08-06T02:11:04;100314.47;;;16.83;92.92
17362;BME280;8798;51.938;4.348;2023-08-06T02:13:32;100320.13;;;16.82;92.96
17362;BME280;8798;51.938;4.348;2023-08-06T02:16:00;100314.06;;;16.80;93.15
17362;BME280;8798;51.938;4.348;2023-08-06T02:18:28;100295.66;;;16.75;93.14
17362;BME280;8798;51.938;4.348;2023-08-06T02:20:57;100288.56;;;16.74;92.80
17362;BME280;8798;51.938;4.348;2023-08-06T02:23:26;100282.53;;;16.72;92.93
17362;BME280;8798;51.938;4.348;2023-08-06T02:25:58;100272.91;;;16.69;93.08
17362;BME280;8798;51.938;4.348;2023-08-06T02:28:28;100260.81;;;16.65;93.21
17362;BME280;8798;51.938;4.348;2023-08-06T02:30:56;100261.63;;;16.66;92.96
17362;BME280;8798;51.938;4.348;2023-08-06T02:33:24;100253.91;;;16.63;93.00
17362;BME280;8798;51.938;4.348;2023-08-06T02:35:58;100249.94;;;16.59;93.41
17362;BME280;8798;51.938;4.348;2023-08-06T02:38:27;100247.03;;;16.60;93.37
17362;BME280;8798;51.938;4.348;2023-08-06T02:40:55;100243.50;;;16.60;92.80
17362;BME280;8798;51.938;4.348;2023-08-06T02:43:23;100249.09;;;16.58;93.20
17362;BME280;8798;51.938;4.348;2023-08-06T02:45:56;100213.00;;;16.51;93.39
17362;BME280;8798;51.938;4.348;2023-08-06T02:48:24;100189.66;;;16.43;93.15
17362;BME280;8798;51.938;4.348;2023-08-06T02:50:52;100181.94;;;16.40;93.14
17362;BME280;8798;51.938;4.348;2023-08-06T02:53:20;100178.59;;;16.38;93.20
17362;BME280;8798;51.938;4.348;2023-08-06T02:55:48;100166.28;;;16.36;93.29
17362;BME280;8798;51.938;4.348;2023-08-06T02:58:16;100162.94;;;16.33;93.41
17362;BME280;8798;51.938;4.348;2023-08-06T03:01:00;100151.69;;;16.30;93.66
17362;BME280;8798;51.938;4.348;2023-08-06T03:03:30;100157.31;;;16.28;93.29
17362;BME280;8798;51.938;4.348;2023-08-06T03:05:58;100158.34;;;16.27;93.24
17362;BME280;8798;51.938;4.348;2023-08-06T03:08:26;100156.66;;;16.26;93.13
17362;BME280;8798;51.938;4.348;2023-08-06T03:10:54;100141.03;;;16.22;93.29
17362;BME280;8798;51.938;4.348;2023-08-06T03:13:22;100144.78;;;16.21;93.35
17362;BME280;8798;51.938;4.348;2023-08-06T03:15:54;100152.09;;;16.20;93.18
17362;BME280;8798;51.938;4.348;2023-08-06T03:18:24;100145.84;;;16.20;93.35
17362;BME280;8798;51.938;4.348;2023-08-06T03:20:52;100141.66;;;16.17;93.08
17362;BME280;8798;51.938;4.348;2023-08-06T03:23:20;100145.41;;;16.16;93.38
17362;BME280;8798;51.938;4.348;2023-08-06T03:25:48;100141.03;;;16.15;93.29
17362;BME280;8798;51.938;4.348;2023-08-06T03:28:16;100150.00;;;16.16;93.34
17362;BME280;8798;51.938;4.348;2023-08-06T03:30:45;100152.69;;;16.16;93.55
17362;BME280;8798;51.938;4.348;2023-08-06T03:33:13;100167.06;;;16.16;93.43
17362;BME280;8798;51.938;4.348;2023-08-06T03:35:42;100179.38;;;16.19;93.41
17362;BME280;8798;51.938;4.348;2023-08-06T03:38:10;100190.84;;;16.21;93.25
17362;BME280;8798;51.938;4.348;2023-08-06T03:40:38;100183.34;;;16.16;93.48
17362;BME280;8798;51.938;4.348;2023-08-06T03:43:06;100130.78;;;16.04;93.43
17362;BME280;8798;51.938;4.348;2023-08-06T03:45:34;100097.66;;;15.95;93.59
17362;BME280;8798;51.938;4.348;2023-08-06T03:48:02;100054.06;;;15.83;93.33
17362;BME280;8798;51.938;4.348;2023-08-06T03:50:30;100021.16;;;15.73;93.45
17362;BME280;8798;51.938;4.348;2023-08-06T03:52:59;99978.38;;;15.62;93.57
17362;BME280;8798;51.938;4.348;2023-08-06T03:55:27;99944.41;;;15.53;93.56
17362;BME280;8798;51.938;4.348;2023-08-06T03:57:55;99927.38;;;15.45;93.43
17362;BME280;8798;51.938;4.348;2023-08-06T04:00:23;99925.06;;;15.42;93.55
17362;BME280;8798;51.938;4.348;2023-08-06T04:02:51;99909.22;;;15.39;93.50
17362;BME280;8798;51.938;4.348;2023-08-06T04:05:19;99905.25;;;15.35;93.49
17362;BME280;8798;51.938;4.348;2023-08-06T04:07:47;99911.72;;;15.34;93.52
17362;BME280;8798;51.938;4.348;2023-08-06T04:10:17;99917.34;;;15.33;93.49
17362;BME280;8798;51.938;4.348;2023-08-06T04:12:44;99928.16;;;15.33;93.48
17362;BME280;8798;51.938;4.348;2023-08-06T04:15:12;99929.84;;;15.34;93.53
17362;BME280;8798;51.938;4.348;2023-08-06T04:17:40;99947.72;;;15.35;93.35
17362;BME280;8798;51.938;4.348;2023-08-06T04:20:09;99957.72;;;15.34;93.58
17362;BME280;8798;51.938;4.348;2023-08-06T04:22:37;99963.34;;;15.33;93.64
17362;BME280;8798;51.938;4.348;2023-08-06T04:25:06;99972.31;;;15.33;93.46
17362;BME280;8798;51.938;4.348;2023-08-06T04:27:35;99990.00;;;15.36;93.69
17362;BME280;8798;51.938;4.348;2023-08-06T04:30:05;99997.09;;;15.37;93.83
17362;BME280;8798;51.938;4.348;2023-08-06T04:32:35;100022.91;;;15.39;93.72
17362;BME280;8798;51.938;4.348;2023-08-06T04:35:04;100046.03;;;15.42;93.66
17362;BME280;8798;51.938;4.348;2023-08-06T04:37:32;100048.53;;;15.43;93.76
17362;BME280;8798;51.938;4.348;2023-08-06T04:40:00;100054.97;;;15.42;93.70
17362;BME280;8798;51.938;4.348;2023-08-06T04:42:28;100058.09;;;15.39;93.42
17362;BME280;8798;51.938;4.348;2023-08-06T04:44:57;100048.50;;;15.37;93.76
17362;BME280;8798;51.938;4.348;2023-08-06T04:47:25;100050.38;;;15.36;93.70
17362;BME280;8798;51.938;4.348;2023-08-06T04:49:53;100046.22;;;15.34;93.70
17362;BME280;8798;51.938;4.348;2023-08-06T04:52:21;100063.28;;;15.34;93.66
17362;BME280;8798;51.938;4.348;2023-08-06T04:54:49;100087.03;;;15.39;93.74
17362;BME280;8798;51.938;4.348;2023-08-06T04:57:17;100097.03;;;15.38;93.85
17362;BME280;8798;51.938;4.348;2023-08-06T04:59:46;100103.47;;;15.37;93.67
17362;BME280;8798;51.938;4.348;2023-08-06T05:02:16;100116.59;;;15.40;93.83
17362;BME280;8798;51.938;4.348;2023-08-06T05:04:44;100136.16;;;15.42;93.89
17362;BME280;8798;51.938;4.348;2023-08-06T05:07:12;100158.47;;;15.44;93.79
17362;BME280;8798;51.938;4.348;2023-08-06T05:09:40;100168.88;;;15.47;93.87
17362;BME280;8798;51.938;4.348;2023-08-06T05:12:09;100174.50;;;15.46;93.78
17362;BME280;8798;51.938;4.348;2023-08-06T05:14:37;100168.47;;;15.44;93.74
17362;BME280;8798;51.938;4.348;2023-08-06T05:17:05;100182.63;;;15.46;93.73
17362;BME280;8798;51.938;4.348;2023-08-06T05:19:34;100183.66;;;15.45;93.82
17362;BME280;8798;51.938;4.348;2023-08-06T05:22:02;100187.41;;;15.44;93.80
17362;BME280;8798;51.938;4.348;2023-08-06T05:24:30;100196.34;;;15.44;93.82
17362;BME280;8798;51.938;4.348;2023-08-06T05:26:58;100206.16;;;15.45;93.70
17362;BME280;8798;51.938;4.348;2023-08-06T05:29:26;100218.47;;;15.48;93.69
17362;BME280;8798;51.938;4.348;2023-08-06T05:31:54;100220.53;;;15.46;93.92
17362;BME280;8798;51.938;4.348;2023-08-06T05:34:22;100223.63;;;15.43;93.51
17362;BME280;8798;51.938;4.348;2023-08-06T05:36:53;100219.06;;;15.43;93.96
17362;BME280;8798;51.938;4.348;2023-08-06T05:39:21;100226.31;;;15.43;93.78
17362;BME280;8798;51.938;4.348;2023-08-06T05:41:48;100240.50;;;15.45;93.84
17362;BME280;8798;51.938;4.348;2023-08-06T05:44:17;100243.44;;;15.43;93.84
17362;BME280;8798;51.938;4.348;2023-08-06T05:46:45;100236.31;;;15.42;93.84
17362;BME280;8798;51.938;4.348;2023-08-06T05:49:13;100243.59;;;15.42;93.83
17362;BME280;8798;51.938;4.348;2023-08-06T05:51:41;100261.50;;;15.43;93.95
17362;BME280;8798;51.938;4.348;2023-08-06T05:54:11;100267.78;;;15.43;93.99
17362;BME280;8798;51.938;4.348;2023-08-06T05:56:39;100260.03;;;15.40;93.83
17362;BME280;8798;51.938;4.348;2023-08-06T05:59:07;100259.22;;;15.40;94.08
17362;BME280;8798;51.938;4.348;2023-08-06T06:01:35;100278.78;;;15.42;93.93
17362;BME280;8798;51.938;4.348;2023-08-06T06:04:03;100293.81;;;15.44;93.97
17362;BME280;8798;51.938;4.348;2023-08-06T06:06:31;100316.09;;;15.46;93.99
17362;BME280;8798;51.938;4.348;2023-08-06T06:08:59;100323.00;;;15.49;94.14
17362;BME280;8798;51.938;4.348;2023-08-06T06:11:28;100345.94;;;15.53;94.02
17362;BME280;8798;51.938;4.348;2023-08-06T06:13:56;100353.84;;;15.55;94.18
17362;BME280;8798;51.938;4.348;2023-08-06T06:16:24;100362.81;;;15.55;93.93
17362;BME280;8798;51.938;4.348;2023-08-06T06:18:52;100376.16;;;15.57;93.98
17362;BME280;8798;51.938;4.348;2023-08-06T06:21:21;100381.38;;;15.58;94.09
17362;BME280;8798;51.938;4.348;2023-08-06T06:23:50;100391.34;;;15.58;94.26
17362;BME280;8798;51.938;4.348;2023-08-06T06:26:19;100408.25;;;15.60;93.87
17362;BME280;8798;51.938;4.348;2023-08-06T06:28:48;100421.41;;;15.63;93.97
17362;BME280;8798;51.938;4.348;2023-08-06T06:31:16;100422.44;;;15.62;94.16
17362;BME280;8798;51.938;4.348;2023-08-06T06:33:44;100428.69;;;15.62;94.01
17362;BME280;8798;51.938;4.348;2023-08-06T06:36:12;100438.50;;;15.63;94.31
17362;BME280;8798;51.938;4.348;2023-08-06T06:38:40;100439.16;;;15.65;93.94
17362;BME280;8798;51.938;4.348;2023-08-06T06:41:10;100466.66;;;15.69;94.18
17362;BME280;8798;51.938;4.348;2023-08-06T06:43:56;100480.06;;;15.71;94.14
17362;BME280;8798;51.938;4.348;2023-08-06T06:46:26;100488.81;;;15.73;94.30
17362;BME280;8798;51.938;4.348;2023-08-06T06:48:54;100508.22;;;15.76;94.04
17362;BME280;8798;51.938;4.348;2023-08-06T06:51:22;100512.59;;;15.77;94.38
17362;BME280;8798;51.938;4.348;2023-08-06T06:53:50;100534.72;;;15.81;93.98
17362;BME280;8798;51.938;4.348;2023-08-06T06:56:18;100553.47;;;15.82;94.29
17362;BME280;8798;51.938;4.348;2023-08-06T06:58:46;100575.44;;;15.87;94.25
17362;BME280;8798;51.938;4.348;2023-08-06T07:01:15;100601.91;;;15.92;94.37
17362;BME280;8798;51.938;4.348;2023-08-06T07:03:43;100634.31;;;16.00;94.12
17362;BME280;8798;51.938;4.348;2023-08-06T07:06:11;100664.00;;;16.08;93.88
17362;BME280;8798;51.938;4.348;2023-08-06T07:08:39;100693.03;;;16.15;94.34
17362;BME280;8798;51.938;4.348;2023-08-06T07:11:07;100715.19;;;16.18;94.23
17362;BME280;8798;51.938;4.348;2023-08-06T07:13:36;100747.56;;;16.26;94.29
17362;BME280;8798;51.938;4.348;2023-08-06T07:16:04;100777.47;;;16.33;94.16
17362;BME280;8798;51.938;4.348;2023-08-06T07:18:36;100812.59;;;16.41;94.25
17362;BME280;8798;51.938;4.348;2023-08-06T07:21:04;100816.81;;;16.44;94.23
17362;BME280;8798;51.938;4.348;2023-08-06T07:23:32;100859.44;;;16.50;94.14
17362;BME280;8798;51.938;4.348;2023-08-06T07:26:00;100847.94;;;16.48;94.28
17362;BME280;8798;51.938;4.348;2023-08-06T07:28:29;100860.09;;;16.52;94.30
17362;BME280;8798;51.938;4.348;2023-08-06T07:30:57;100882.06;;;16.57;94.13
17362;BME280;8798;51.938;4.348;2023-08-06T07:33:25;100896.72;;;16.63;94.32
17362;BME280;8798;51.938;4.348;2023-08-06T07:35:54;100917.88;;;16.67;94.13
17362;BME280;8798;51.938;4.348;2023-08-06T07:38:22;100937.13;;;16.72;94.29
17362;BME280;8798;51.938;4.348;2023-08-06T07:40:50;100963.50;;;16.79;94.24
17362;BME280;8798;51.938;4.348;2023-08-06T07:43:18;100986.34;;;16.84;94.47
17362;BME280;8798;51.938;4.348;2023-08-06T07:45:46;101003.91;;;16.88;94.22
17362;BME280;8798;51.938;4.348;2023-08-06T07:48:14;101014.22;;;16.93;93.98
17362;BME280;8798;51.938;4.348;2023-08-06T07:50:42;101051.09;;;17.02;94.11
17362;BME280;8798;51.938;4.348;2023-08-06T07:53:18;101106.56;;;17.14;94.23
17362;BME280;8798;51.938;4.348;2023-08-06T07:55:49;101125.69;;;17.21;94.19
17362;BME280;8798;51.938;4.348;2023-08-06T07:58:17;101134.28;;;17.25;94.04
17362;BME280;8798;51.938;4.348;2023-08-06T08:00:45;101144.75;;;17.28;94.14
17362;BME280;8798;51.938;4.348;2023-08-06T08:03:14;101160.47;;;17.32;93.81
17362;BME280;8798;51.938;4.348;2023-08-06T08:05:43;101181.47;;;17.38;94.44
17362;BME280;8798;51.938;4.348;2023-08-06T08:08:12;101244.97;;;17.52;94.12
17362;BME280;8798;51.938;4.348;2023-08-06T08:10:41;101278.78;;;17.65;94.08
17362;BME280;8798;51.938;4.348;2023-08-06T08:13:10;101302.69;;;17.69;94.05
17362;BME280;8798;51.938;4.348;2023-08-06T08:15:38;101322.63;;;17.76;93.99
17362;BME280;8798;51.938;4.348;2023-08-06T08:18:06;101307.56;;;17.74;94.14
17362;BME280;8798;51.938;4.348;2023-08-06T08:20:34;101312.44;;;17.78;94.19
17362;BME280;8798;51.938;4.348;2023-08-06T08:23:02;101350.88;;;17.90;94.04
17362;BME280;8798;51.938;4.348;2023-08-06T08:25:30;101342.09;;;17.88;94.11
17362;BME280;8798;51.938;4.348;2023-08-06T08:28:02;101353.22;;;17.93;94.02
17362;BME280;8798;51.938;4.348;2023-08-06T08:30:30;101400.00;;;18.03;94.42
17362;BME280;8798;51.938;4.348;2023-08-06T08:32:58;101442.84;;;18.16;94.11
17362;BME280;8798;51.938;4.348;2023-08-06T08:35:26;101457.78;;;18.20;93.84
17362;BME280;8798;51.938;4.348;2023-08-06T08:37:54;101510.31;;;18.36;93.98
17362;BME280;8798;51.938;4.348;2023-08-06T08:40:23;101542.69;;;18.45;93.91
17362;BME280;8798;51.938;4.348;2023-08-06T08:42:54;101581.34;;;18.56;93.83
17362;BME280;8798;51.938;4.348;2023-08-06T08:45:26;101616.28;;;18.67;93.85
17362;BME280;8798;51.938;4.348;2023-08-06T08:47:55;101609.78;;;18.68;93.88
17362;BME280;8798;51.938;4.348;2023-08-06T08:50:24;101577.69;;;18.63;93.79
17362;BME280;8798;51.938;4.348;2023-08-06T08:52:52;101541.19;;;18.58;93.83
17362;BME280;8798;51.938;4.348;2023-08-06T08:55:21;101577.97;;;18.68;93.87
17362;BME280;8798;51.938;4.348;2023-08-06T08:57:49;101594.22;;;18.77;93.86
17362;BME280;8798;51.938;4.348;2023-08-06T09:00:17;101628.72;;;18.84;93.64
17362;BME280;8798;51.938;4.348;2023-08-06T09:02:47;101636.31;;;18.89;93.62
17362;BME280;8798;51.938;4.348;2023-08-06T09:05:16;101636.78;;;18.93;93.56
17362;BME280;8798;51.938;4.348;2023-08-06T09:07:48;101655.75;;;19.01;93.65
17362;BME280;8798;51.938;4.348;2023-08-06T09:10:17;101640.47;;;19.00;93.47
17362;BME280;8798;51.938;4.348;2023-08-06T09:12:48;101632.06;;;19.01;93.34
17362;BME280;8798;51.938;4.348;2023-08-06T09:15:18;101659.41;;;19.08;93.41
17362;BME280;8798;51.938;4.348;2023-08-06T09:17:51;101724.06;;;19.29;93.39
17362;BME280;8798;51.938;4.348;2023-08-06T09:20:20;101832.16;;;19.51;93.32
17362;BME280;8798;51.938;4.348;2023-08-06T09:22:48;101879.53;;;19.65;93.32
17362;BME280;8798;51.938;4.348;2023-08-06T09:25:21;101910.78;;;19.77;93.46
17362;BME280;8798;51.938;4.348;2023-08-06T09:27:51;102025.75;;;20.04;93.27
17362;BME280;8798;51.938;4.348;2023-08-06T09:30:30;102152.03;;;20.36;93.21
17362;BME280;8798;51.938;4.348;2023-08-06T09:33:00;102259.66;;;20.65;93.03
17362;BME280;8798;51.938;4.348;2023-08-06T09:35:29;102306.13;;;20.79;92.96
17362;BME280;8798;51.938;4.348;2023-08-06T09:38:05;102398.00;;;21.03;93.12
17362;BME280;8798;51.938;4.348;2023-08-06T09:40:35;102497.94;;;21.29;93.15
17362;BME280;8798;51.938;4.348;2023-08-06T09:43:03;102532.69;;;21.43;93.07
17362;BME280;8798;51.938;4.348;2023-08-06T09:45:33;102616.47;;;21.67;92.54
17362;BME280;8798;51.938;4.348;2023-08-06T09:48:05;102697.72;;;21.90;92.73
17362;BME280;8798;51.938;4.348;2023-08-06T09:50:34;102793.19;;;22.16;92.72
17362;BME280;8798;51.938;4.348;2023-08-06T09:53:04;102803.06;;;22.25;92.80
17362;BME280;8798;51.938;4.348;2023-08-06T09:55:33;102806.78;;;22.32;92.62
17362;BME280;8798;51.938;4.348;2023-08-06T09:58:01;102884.38;;;22.56;92.18
17362;BME280;8798;51.938;4.348;2023-08-06T10:00:30;102900.38;;;22.67;91.87
17362;BME280;8798;51.938;4.348;2023-08-06T10:03:06;102959.22;;;22.88;91.68
17362;BME280;8798;51.938;4.348;2023-08-06T10:05:36;103136.00;;;23.31;92.38
17362;BME280;8798;51.938;4.348;2023-08-06T10:08:05;103057.34;;;23.24;91.74
17362;BME280;8798;51.938;4.348;2023-08-06T10:10:34;102865.63;;;22.91;91.94
17362;BME280;8798;51.938;4.348;2023-08-06T10:13:05;102951.47;;;23.14;91.59
17362;BME280;8798;51.938;4.348;2023-08-06T10:15:34;103119.22;;;23.57;91.70
17362;BME280;8798;51.938;4.348;2023-08-06T10:18:05;103323.81;;;24.08;91.43
17362;BME280;8798;51.938;4.348;2023-08-06T10:20:34;103562.81;;;24.63;91.22
17362;BME280;8798;51.938;4.348;2023-08-06T10:23:03;103580.44;;;24.77;90.84
17362;BME280;8798;51.938;4.348;2023-08-06T10:25:33;103642.91;;;25.00;90.55
17362;BME280;8798;51.938;4.348;2023-08-06T10:28:07;103913.31;;;25.66;90.84
17362;BME280;8798;51.938;4.348;2023-08-06T10:30:46;103951.50;;;25.85;90.15
17362;BME280;8798;51.938;4.348;2023-08-06T10:33:19;104072.31;;;26.21;89.87
17362;BME280;8798;51.938;4.348;2023-08-06T10:35:48;104223.72;;;26.64;89.71
17362;BME280;8798;51.938;4.348;2023-08-06T10:38:19;103887.50;;;26.06;89.88
17362;BME280;8798;51.938;4.348;2023-08-06T10:40:49;103337.28;;;25.09;90.11
17362;BME280;8798;51.938;4.348;2023-08-06T10:43:25;102925.91;;;24.34;89.56
17362;BME280;8798;51.938;4.348;2023-08-06T10:45:55;102617.25;;;23.77;89.56
17362;BME280;8798;51.938;4.348;2023-08-06T10:48:33;102450.81;;;23.48;89.79
17362;BME280;8798;51.938;4.348;2023-08-06T10:51:03;102313.69;;;23.27;89.68
17362;BME280;8798;51.938;4.348;2023-08-06T10:53:32;102173.28;;;23.03;89.48
17362;BME280;8798;51.938;4.348;2023-08-06T10:56:00;101993.25;;;22.69;89.83
17362;BME280;8798;51.938;4.348;2023-08-06T10:58:31;101807.91;;;22.35;89.28
17362;BME280;8798;51.938;4.348;2023-08-06T11:01:00;101692.44;;;22.11;89.77
17362;BME280;8798;51.938;4.348;2023-08-06T11:03:28;101650.28;;;22.05;89.50
17362;BME280;8798;51.938;4.348;2023-08-06T11:05:58;101659.78;;;22.09;89.75
17362;BME280;8798;51.938;4.348;2023-08-06T11:08:26;101716.06;;;22.25;89.61
17362;BME280;8798;51.938;4.348;2023-08-06T11:10:55;101551.78;;;21.92;89.04
17362;BME280;8798;51.938;4.348;2023-08-06T11:13:35;101322.03;;;21.45;89.42
17362;BME280;8798;51.938;4.348;2023-08-06T11:16:03;101239.59;;;21.29;88.85
17362;BME280;8798;51.938;4.348;2023-08-06T11:18:31;101337.38;;;21.53;89.23
17362;BME280;8798;51.938;4.348;2023-08-06T11:21:01;101553.47;;;22.00;89.30
17362;BME280;8798;51.938;4.348;2023-08-06T11:23:29;101711.25;;;22.34;89.28
17362;BME280;8798;51.938;4.348;2023-08-06T11:25:58;101805.66;;;22.58;89.09
17362;BME280;8798;51.938;4.348;2023-08-06T11:28:26;101862.38;;;22.71;88.97
17362;BME280;8798;51.938;4.348;2023-08-06T11:30:54;101899.91;;;22.84;88.51
17362;BME280;8798;51.938;4.348;2023-08-06T11:33:24;101866.81;;;22.79;88.85
17362;BME280;8798;51.938;4.348;2023-08-06T11:35:55;101840.47;;;22.78;88.89
17362;BME280;8798;51.938;4.348;2023-08-06T11:38:25;101986.91;;;23.10;88.97
17362;BME280;8798;51.938;4.348;2023-08-06T11:40:55;101977.19;;;23.14;88.30
17362;BME280;8798;51.938;4.348;2023-08-06T11:43:23;101877.41;;;22.95;88.32
17362;BME280;8798;51.938;4.348;2023-08-06T11:45:51;101637.09;;;22.49;88.36
17362;BME280;8798;51.938;4.348;2023-08-06T11:48:21;101413.47;;;22.03;88.57
17362;BME280;8798;51.938;4.348;2023-08-06T11:50:49;101330.81;;;21.87;88.46
17362;BME280;8798;51.938;4.348;2023-08-06T11:53:21;101283.91;;;21.77;88.25
17362;BME280;8798;51.938;4.348;2023-08-06T11:55:51;101204.03;;;21.62;88.23
17362;BME280;8798;51.938;4.348;2023-08-06T11:58:19;101206.53;;;21.63;88.56
17362;BME280;8798;51.938;4.348;2023-08-06T12:00:48;101333.53;;;21.94;88.36
17362;BME280;8798;51.938;4.348;2023-08-06T12:03:19;101335.44;;;21.94;88.36
17362;BME280;8798;51.938;4.348;2023-08-06T12:05:47;101259.91;;;21.79;88.02
17362;BME280;8798;51.938;4.348;2023-08-06T12:08:15;101271.25;;;21.83;88.35
17362;BME280;8798;51.938;4.348;2023-08-06T12:10:43;101233.00;;;21.76;87.71
17362;BME280;8798;51.938;4.348;2023-08-06T12:13:14;101383.56;;;22.08;88.05
17362;BME280;8798;51.938;4.348;2023-08-06T12:15:42;101369.88;;;22.08;87.88
17362;BME280;8798;51.938;4.348;2023-08-06T12:18:10;101380.41;;;22.11;87.62
17362;BME280;8798;51.938;4.348;2023-08-06T12:20:38;101425.47;;;22.22;87.71
17362;BME280;8798;51.938;4.348;2023-08-06T12:23:12;101639.38;;;22.72;87.63
17362;BME280;8798;51.938;4.348;2023-08-06T12:25:42;101660.66;;;22.76;87.19
17362;BME280;8798;51.938;4.348;2023-08-06T12:28:11;101704.72;;;22.88;87.37
17362;BME280;8798;51.938;4.348;2023-08-06T12:30:41;101979.75;;;23.49;87.18
17362;BME280;8798;51.938;4.348;2023-08-06T12:33:11;102137.53;;;23.86;86.82
17362;BME280;8798;51.938;4.348;2023-08-06T12:35:39;102202.00;;;24.03;86.92
17362;BME280;8798;51.938;4.348;2023-08-06T12:38:07;102244.69;;;24.19;86.44
17362;BME280;8798;51.938;4.348;2023-08-06T12:40:35;102231.59;;;24.21;86.45
17362;BME280;8798;51.938;4.348;2023-08-06T12:43:07;102102.31;;;23.96;86.40
17362;BME280;8798;51.938;4.348;2023-08-06T12:45:35;101925.31;;;23.66;86.12
17362;BME280;8798;51.938;4.348;2023-08-06T12:48:04;101749.81;;;23.32;86.17
17362;BME280;8798;51.938;4.348;2023-08-06T12:50:32;101635.97;;;23.10;85.92
17362;BME280;8798;51.938;4.348;2023-08-06T12:53:01;101473.31;;;22.78;86.09
17362;BME280;8798;51.938;4.348;2023-08-06T12:55:31;101312.47;;;22.46;85.77
17362;BME280;8798;51.938;4.348;2023-08-06T12:57:59;101228.34;;;22.28;85.60
17362;BME280;8798;51.938;4.348;2023-08-06T13:00:27;101118.56;;;22.05;85.59
17362;BME280;8798;51.938;4.348;2023-08-06T13:02:55;100992.06;;;21.78;85.40
17362;BME280;8798;51.938;4.348;2023-08-06T13:05:24;100873.41;;;21.54;84.88
17362;BME280;8798;51.938;4.348;2023-08-06T13:07:52;100801.19;;;21.36;85.62
17362;BME280;8798;51.938;4.348;2023-08-06T13:10:20;100595.50;;;20.92;85.36